sensor_id;sensor_type;location;lat;lon;timestamp;P1;durP1;ratioP1;P2;durP2;ratioP2
15281;SDS011;7742;44.320;19.820;2023-08-08T00:01:46;29.27;;;27.88;;
15281;SDS011;7742;44.320;19.820;2023-08-08T00:04:12;30.33;;;28.92;;
15281;SDS011;7742;44.320;19.820;2023-08-08T00:06:39;31.83;;;30.40;;
15281;SDS011;7742;44.320;19.820;2023-08-08T00:09:08;32.58;;;31.08;;
15281;SDS011;7742;44.320;19.820;2023-08-08T00:11:35;34.83;;;33.23;;
15281;SDS011;7742;44.320;19.820;2023-08-08T00:14:02;35.15;;;33.35;;
15281;SDS011;7742;44.320;19.820;2023-08-08T00:16:29;34.22;;;32.53;;
15281;SDS011;7742;44.320;19.820;2023-08-08T00:18:55;35.83;;;34.03;;
15281;SDS011;7742;44.320;19.820;2023-08-08T00:21:22;36.50;;;34.60;;
15281;SDS011;7742;44.320;19.820;2023-08-08T00:23:49;36.42;;;34.63;;
15281;SDS011;7742;44.320;19.820;2023-08-08T00:26:17;34.15;;;32.33;;
15281;SDS011;7742;44.320;19.820;2023-08-08T00:28:44;33.67;;;31.85;;
15281;SDS011;7742;44.320;19.820;2023-08-08T00:31:11;35.78;;;33.88;;
15281;SDS011;7742;44.320;19.820;2023-08-08T00:33:38;35.75;;;33.85;;
15281;SDS011;7742;44.320;19.820;2023-08-08T00:36:05;34.77;;;32.87;;
15281;SDS011;7742;44.320;19.820;2023-08-08T00:38:32;35.25;;;33.35;;
15281;SDS011;7742;44.320;19.820;2023-08-08T00:40:59;35.42;;;33.63;;
15281;SDS011;7742;44.320;19.820;2023-08-08T00:43:27;34.03;;;32.22;;
15281;SDS011;7742;44.320;19.820;2023-08-08T00:45:54;33.67;;;31.88;;
15281;SDS011;7742;44.320;19.820;2023-08-08T00:48:21;34.72;;;32.92;;
15281;SDS011;7742;44.320;19.820;2023-08-08T00:50:48;35.30;;;33.40;;
15281;SDS011;7742;44.320;19.820;2023-08-08T00:53:17;33.60;;;31.70;;
15281;SDS011;7742;44.320;19.820;2023-08-08T00:55:45;36.67;;;34.88;;
15281;SDS011;7742;44.320;19.820;2023-08-08T00:58:12;37.95;;;36.08;;
15281;SDS011;7742;44.320;19.820;2023-08-08T01:00:40;36.92;;;35.22;;
15281;SDS011;7742;44.320;19.820;2023-08-08T01:03:07;35.08;;;33.25;;
15281;SDS011;7742;44.320;19.820;2023-08-08T01:05:36;34.97;;;33.27;;
15281;SDS011;7742;44.320;19.820;2023-08-08T01:08:05;34.53;;;32.73;;
15281;SDS011;7742;44.320;19.820;2023-08-08T01:10:33;33.80;;;32.08;;
15281;SDS011;7742;44.320;19.820;2023-08-08T01:13:02;32.60;;;31.20;;
15281;SDS011;7742;44.320;19.820;2023-08-08T01:15:30;35.35;;;33.65;;
15281;SDS011;7742;44.320;19.820;2023-08-08T01:18:02;35.28;;;33.55;;
15281;SDS011;7742;44.320;19.820;2023-08-08T01:20:31;34.97;;;33.37;;
15281;SDS011;7742;44.320;19.820;2023-08-08T01:23:01;34.85;;;33.25;;
15281;SDS011;7742;44.320;19.820;2023-08-08T01:25:31;34.80;;;33.10;;
15281;SDS011;7742;44.320;19.820;2023-08-08T01:27:58;28.15;;;26.85;;
15281;SDS011;7742;44.320;19.820;2023-08-08T01:30:25;30.65;;;29.35;;
15281;SDS011;7742;44.320;19.820;2023-08-08T01:32:52;27.70;;;26.50;;
15281;SDS011;7742;44.320;19.820;2023-08-08T01:35:19;27.50;;;26.13;;
15281;SDS011;7742;44.320;19.820;2023-08-08T01:37:49;27.05;;;25.65;;
15281;SDS011;7742;44.320;19.820;2023-08-08T01:40:16;27.55;;;26.30;;
15281;SDS011;7742;44.320;19.820;2023-08-08T01:42:45;27.17;;;25.95;;
15281;SDS011;7742;44.320;19.820;2023-08-08T01:45:13;26.52;;;25.35;;
15281;SDS011;7742;44.320;19.820;2023-08-08T01:47:41;26.33;;;25.13;;
15281;SDS011;7742;44.320;19.820;2023-08-08T01:50:08;23.87;;;22.87;;
15281;SDS011;7742;44.320;19.820;2023-08-08T01:52:35;21.55;;;20.60;;
15281;SDS011;7742;44.320;19.820;2023-08-08T01:55:02;23.85;;;22.75;;
15281;SDS011;7742;44.320;19.820;2023-08-08T01:57:30;22.73;;;21.60;;
15281;SDS011;7742;44.320;19.820;2023-08-08T01:59:59;22.73;;;21.73;;
15281;SDS011;7742;44.320;19.820;2023-08-08T02:02:26;22.30;;;21.40;;
15281;SDS011;7742;44.320;19.820;2023-08-08T02:04:53;20.80;;;19.90;;
15281;SDS011;7742;44.320;19.820;2023-08-08T02:07:19;21.75;;;20.75;;
15281;SDS011;7742;44.320;19.820;2023-08-08T02:09:46;19.33;;;18.45;;
15281;SDS011;7742;44.320;19.820;2023-08-08T02:12:16;19.43;;;18.63;;
15281;SDS011;7742;44.320;19.820;2023-08-08T02:14:42;19.20;;;18.40;;
15281;SDS011;7742;44.320;19.820;2023-08-08T02:17:11;19.67;;;18.77;;
15281;SDS011;7742;44.320;19.820;2023-08-08T02:19:38;17.25;;;16.42;;
15281;SDS011;7742;44.320;19.820;2023-08-08T02:22:05;19.02;;;18.23;;
15281;SDS011;7742;44.320;19.820;2023-08-08T02:24:31;20.77;;;19.80;;
15281;SDS011;7742;44.320;19.820;2023-08-08T02:27:02;20.00;;;19.10;;
15281;SDS011;7742;44.320;19.820;2023-08-08T02:29:29;16.98;;;16.23;;
15281;SDS011;7742;44.320;19.820;2023-08-08T02:31:56;20.00;;;19.10;;
15281;SDS011;7742;44.320;19.820;2023-08-08T02:34:24;19.30;;;18.40;;
15281;SDS011;7742;44.320;19.820;2023-08-08T02:36:51;18.65;;;17.75;;
15281;SDS011;7742;44.320;19.820;2023-08-08T02:39:18;17.17;;;16.48;;
15281;SDS011;7742;44.320;19.820;2023-08-08T02:41:45;17.95;;;17.15;;
15281;SDS011;7742;44.320;19.820;2023-08-08T02:44:12;18.20;;;17.42;;
15281;SDS011;7742;44.320;19.820;2023-08-08T02:46:39;16.75;;;16.05;;
15281;SDS011;7742;44.320;19.820;2023-08-08T02:49:06;18.98;;;18.17;;
15281;SDS011;7742;44.320;19.820;2023-08-08T02:51:34;19.80;;;18.90;;
15281;SDS011;7742;44.320;19.820;2023-08-08T02:54:01;18.85;;;18.05;;
15281;SDS011;7742;44.320;19.820;2023-08-08T02:56:29;19.73;;;18.83;;
15281;SDS011;7742;44.320;19.820;2023-08-08T02:58:56;15.93;;;15.13;;
15281;SDS011;7742;44.320;19.820;2023-08-08T03:01:23;17.07;;;16.27;;
15281;SDS011;7742;44.320;19.820;2023-08-08T03:06:51;17.90;;;17.10;;
15281;SDS011;7742;44.320;19.820;2023-08-08T03:09:18;16.15;;;15.45;;
15281;SDS011;7742;44.320;19.820;2023-08-08T03:11:45;15.90;;;15.20;;
15281;SDS011;7742;44.320;19.820;2023-08-08T03:14:11;16.90;;;16.23;;
15281;SDS011;7742;44.320;19.820;2023-08-08T03:16:38;17.38;;;16.58;;
15281;SDS011;7742;44.320;19.820;2023-08-08T03:19:05;14.85;;;14.23;;
15281;SDS011;7742;44.320;19.820;2023-08-08T03:21:32;14.93;;;14.23;;
15281;SDS011;7742;44.320;19.820;2023-08-08T03:24:01;14.73;;;14.02;;
15281;SDS011;7742;44.320;19.820;2023-08-08T03:26:27;14.57;;;13.98;;
15281;SDS011;7742;44.320;19.820;2023-08-08T03:28:54;15.02;;;14.40;;
15281;SDS011;7742;44.320;19.820;2023-08-08T03:31:21;16.90;;;16.00;;
15281;SDS011;7742;44.320;19.820;2023-08-08T03:33:49;14.40;;;13.70;;
15281;SDS011;7742;44.320;19.820;2023-08-08T03:36:16;15.02;;;14.27;;
15281;SDS011;7742;44.320;19.820;2023-08-08T03:38:43;14.63;;;13.93;;
15281;SDS011;7742;44.320;19.820;2023-08-08T03:41:12;14.90;;;14.00;;
15281;SDS011;7742;44.320;19.820;2023-08-08T03:43:39;15.07;;;14.27;;
15281;SDS011;7742;44.320;19.820;2023-08-08T03:46:06;14.80;;;14.00;;
15281;SDS011;7742;44.320;19.820;2023-08-08T03:48:34;13.73;;;13.13;;
15281;SDS011;7742;44.320;19.820;2023-08-08T03:51:01;13.43;;;12.83;;
15281;SDS011;7742;44.320;19.820;2023-08-08T03:53:28;14.10;;;13.50;;
15281;SDS011;7742;44.320;19.820;2023-08-08T03:55:55;12.93;;;12.40;;
15281;SDS011;7742;44.320;19.820;2023-08-08T03:58:23;14.88;;;13.98;;
15281;SDS011;7742;44.320;19.820;2023-08-08T04:00:50;14.80;;;14.00;;
15281;SDS011;7742;44.320;19.820;2023-08-08T04:03:17;14.52;;;13.82;;
15281;SDS011;7742;44.320;19.820;2023-08-08T04:05:44;14.32;;;13.63;;
15281;SDS011;7742;44.320;19.820;2023-08-08T04:08:12;14.23;;;13.43;;
15281;SDS011;7742;44.320;19.820;2023-08-08T04:10:39;13.10;;;12.50;;
15281;SDS011;7742;44.320;19.820;2023-08-08T04:13:06;13.30;;;12.70;;
15281;SDS011;7742;44.320;19.820;2023-08-08T04:15:35;13.00;;;12.40;;
15281;SDS011;7742;44.320;19.820;2023-08-08T04:18:02;12.27;;;11.77;;
15281;SDS011;7742;44.320;19.820;2023-08-08T04:20:31;12.68;;;12.07;;
15281;SDS011;7742;44.320;19.820;2023-08-08T04:22:58;12.75;;;12.05;;
15281;SDS011;7742;44.320;19.820;2023-08-08T04:25:25;12.30;;;11.80;;
15281;SDS011;7742;44.320;19.820;2023-08-08T04:27:52;12.50;;;11.90;;
15281;SDS011;7742;44.320;19.820;2023-08-08T04:30:19;12.45;;;11.82;;
15281;SDS011;7742;44.320;19.820;2023-08-08T04:32:48;12.73;;;12.05;;
15281;SDS011;7742;44.320;19.820;2023-08-08T04:35:15;13.10;;;12.40;;
15281;SDS011;7742;44.320;19.820;2023-08-08T04:37:42;13.68;;;13.07;;
15281;SDS011;7742;44.320;19.820;2023-08-08T04:40:09;13.53;;;12.83;;
15281;SDS011;7742;44.320;19.820;2023-08-08T04:42:36;14.00;;;13.30;;
15281;SDS011;7742;44.320;19.820;2023-08-08T04:45:03;13.77;;;13.13;;
15281;SDS011;7742;44.320;19.820;2023-08-08T04:47:31;13.50;;;12.80;;
15281;SDS011;7742;44.320;19.820;2023-08-08T04:49:58;14.20;;;13.40;;
15281;SDS011;7742;44.320;19.820;2023-08-08T04:52:25;14.90;;;14.00;;
15281;SDS011;7742;44.320;19.820;2023-08-08T04:54:52;16.50;;;15.60;;
15281;SDS011;7742;44.320;19.820;2023-08-08T04:57:19;14.45;;;13.75;;
15281;SDS011;7742;44.320;19.820;2023-08-08T04:59:46;17.55;;;16.65;;
15281;SDS011;7742;44.320;19.820;2023-08-08T05:02:12;16.60;;;15.90;;
15281;SDS011;7742;44.320;19.820;2023-08-08T05:04:39;14.95;;;14.27;;
15281;SDS011;7742;44.320;19.820;2023-08-08T05:07:08;16.45;;;15.60;;
15281;SDS011;7742;44.320;19.820;2023-08-08T05:09:35;16.02;;;15.25;;
15281;SDS011;7742;44.320;19.820;2023-08-08T05:12:02;19.00;;;18.10;;
15281;SDS011;7742;44.320;19.820;2023-08-08T05:14:29;16.02;;;15.20;;
15281;SDS011;7742;44.320;19.820;2023-08-08T05:16:55;17.20;;;16.30;;
15281;SDS011;7742;44.320;19.820;2023-08-08T05:19:22;16.98;;;16.00;;
15281;SDS011;7742;44.320;19.820;2023-08-08T05:21:50;15.70;;;15.00;;
15281;SDS011;7742;44.320;19.820;2023-08-08T05:24:18;15.50;;;14.80;;
15281;SDS011;7742;44.320;19.820;2023-08-08T05:26:45;15.52;;;14.75;;
15281;SDS011;7742;44.320;19.820;2023-08-08T05:29:12;16.38;;;15.55;;
15281;SDS011;7742;44.320;19.820;2023-08-08T05:31:40;16.10;;;15.30;;
15281;SDS011;7742;44.320;19.820;2023-08-08T05:34:07;15.43;;;14.63;;
15281;SDS011;7742;44.320;19.820;2023-08-08T05:36:34;15.90;;;15.00;;
15281;SDS011;7742;44.320;19.820;2023-08-08T05:39:00;18.20;;;17.20;;
15281;SDS011;7742;44.320;19.820;2023-08-08T05:41:29;18.65;;;17.75;;
15281;SDS011;7742;44.320;19.820;2023-08-08T05:43:56;17.75;;;16.85;;
15281;SDS011;7742;44.320;19.820;2023-08-08T05:46:23;18.15;;;17.20;;
15281;SDS011;7742;44.320;19.820;2023-08-08T05:48:50;18.13;;;17.20;;
15281;SDS011;7742;44.320;19.820;2023-08-08T05:51:17;16.50;;;15.55;;
15281;SDS011;7742;44.320;19.820;2023-08-08T05:53:44;17.47;;;16.47;;
15281;SDS011;7742;44.320;19.820;2023-08-08T05:56:11;19.48;;;18.40;;
15281;SDS011;7742;44.320;19.820;2023-08-08T05:58:39;23.10;;;22.00;;
15281;SDS011;7742;44.320;19.820;2023-08-08T06:01:06;25.58;;;24.45;;
15281;SDS011;7742;44.320;19.820;2023-08-08T06:03:34;24.00;;;22.70;;
15281;SDS011;7742;44.320;19.820;2023-08-08T06:06:03;20.17;;;19.17;;
15281;SDS011;7742;44.320;19.820;2023-08-08T06:08:30;20.02;;;18.98;;
15281;SDS011;7742;44.320;19.820;2023-08-08T06:10:57;18.85;;;17.85;;
15281;SDS011;7742;44.320;19.820;2023-08-08T06:13:24;19.15;;;17.95;;
15281;SDS011;7742;44.320;19.820;2023-08-08T06:15:53;17.40;;;16.50;;
15281;SDS011;7742;44.320;19.820;2023-08-08T06:18:20;16.63;;;15.73;;
15281;SDS011;7742;44.320;19.820;2023-08-08T06:20:47;18.73;;;17.70;;
15281;SDS011;7742;44.320;19.820;2023-08-08T06:23:14;18.20;;;17.30;;
15281;SDS011;7742;44.320;19.820;2023-08-08T06:25:42;18.05;;;17.15;;
15281;SDS011;7742;44.320;19.820;2023-08-08T06:28:08;17.90;;;17.00;;
15281;SDS011;7742;44.320;19.820;2023-08-08T06:30:36;17.60;;;16.70;;
15281;SDS011;7742;44.320;19.820;2023-08-08T06:33:05;17.73;;;16.85;;
15281;SDS011;7742;44.320;19.820;2023-08-08T06:35:33;18.02;;;17.02;;
15281;SDS011;7742;44.320;19.820;2023-08-08T06:38:00;18.60;;;17.70;;
15281;SDS011;7742;44.320;19.820;2023-08-08T06:40:27;18.05;;;17.15;;
15281;SDS011;7742;44.320;19.820;2023-08-08T06:42:53;17.77;;;16.88;;
15281;SDS011;7742;44.320;19.820;2023-08-08T06:45:20;14.60;;;13.80;;
15281;SDS011;7742;44.320;19.820;2023-08-08T06:47:47;15.17;;;14.37;;
15281;SDS011;7742;44.320;19.820;2023-08-08T06:50:16;15.50;;;14.60;;
15281;SDS011;7742;44.320;19.820;2023-08-08T06:52:43;16.00;;;15.10;;
15281;SDS011;7742;44.320;19.820;2023-08-08T06:55:10;17.75;;;16.85;;
15281;SDS011;7742;44.320;19.820;2023-08-08T06:57:38;18.70;;;17.80;;
15281;SDS011;7742;44.320;19.820;2023-08-08T07:00:05;19.60;;;18.70;;
15281;SDS011;7742;44.320;19.820;2023-08-08T07:02:33;18.00;;;17.20;;
15281;SDS011;7742;44.320;19.820;2023-08-08T07:05:00;17.23;;;16.53;;
15281;SDS011;7742;44.320;19.820;2023-08-08T07:07:30;17.40;;;16.60;;
15281;SDS011;7742;44.320;19.820;2023-08-08T07:09:58;17.50;;;16.70;;
15281;SDS011;7742;44.320;19.820;2023-08-08T07:12:25;17.27;;;16.38;;
15281;SDS011;7742;44.320;19.820;2023-08-08T07:14:52;17.97;;;17.17;;
15281;SDS011;7742;44.320;19.820;2023-08-08T07:17:19;16.40;;;15.50;;
15281;SDS011;7742;44.320;19.820;2023-08-08T07:19:46;16.83;;;15.93;;
15281;SDS011;7742;44.320;19.820;2023-08-08T07:22:13;16.80;;;15.90;;
15281;SDS011;7742;44.320;19.820;2023-08-08T07:24:42;17.55;;;16.60;;
15281;SDS011;7742;44.320;19.820;2023-08-08T07:27:09;17.98;;;17.08;;
15281;SDS011;7742;44.320;19.820;2023-08-08T07:29:36;18.80;;;17.90;;
15281;SDS011;7742;44.320;19.820;2023-08-08T07:32:03;16.60;;;15.90;;
15281;SDS011;7742;44.320;19.820;2023-08-08T07:34:31;16.48;;;15.68;;
15281;SDS011;7742;44.320;19.820;2023-08-08T07:36:59;16.90;;;16.10;;
15281;SDS011;7742;44.320;19.820;2023-08-08T07:39:26;16.80;;;16.00;;
15281;SDS011;7742;44.320;19.820;2023-08-08T07:41:55;18.23;;;17.33;;
15281;SDS011;7742;44.320;19.820;2023-08-08T07:44:22;17.60;;;16.70;;
15281;SDS011;7742;44.320;19.820;2023-08-08T07:46:50;17.67;;;16.77;;
15281;SDS011;7742;44.320;19.820;2023-08-08T07:49:17;17.70;;;16.80;;
15281;SDS011;7742;44.320;19.820;2023-08-08T07:51:44;18.95;;;18.05;;
15281;SDS011;7742;44.320;19.820;2023-08-08T07:54:11;17.02;;;16.13;;
15281;SDS011;7742;44.320;19.820;2023-08-08T07:56:37;16.98;;;15.98;;
15281;SDS011;7742;44.320;19.820;2023-08-08T07:59:06;16.45;;;15.45;;
15281;SDS011;7742;44.320;19.820;2023-08-08T08:01:34;16.02;;;15.23;;
15281;SDS011;7742;44.320;19.820;2023-08-08T08:04:06;17.67;;;16.83;;
15281;SDS011;7742;44.320;19.820;2023-08-08T08:06:33;17.88;;;17.08;;
15281;SDS011;7742;44.320;19.820;2023-08-08T08:09:00;17.50;;;16.60;;
15281;SDS011;7742;44.320;19.820;2023-08-08T08:11:28;15.70;;;14.98;;
15281;SDS011;7742;44.320;19.820;2023-08-08T08:13:55;16.88;;;15.98;;
15281;SDS011;7742;44.320;19.820;2023-08-08T08:16:23;15.98;;;15.07;;
15281;SDS011;7742;44.320;19.820;2023-08-08T08:18:50;19.60;;;18.60;;
15281;SDS011;7742;44.320;19.820;2023-08-08T08:21:17;17.73;;;16.75;;
15281;SDS011;7742;44.320;19.820;2023-08-08T08:23:44;17.38;;;16.48;;
15281;SDS011;7742;44.320;19.820;2023-08-08T08:26:12;16.30;;;15.40;;
15281;SDS011;7742;44.320;19.820;2023-08-08T08:28:39;17.50;;;16.50;;
15281;SDS011;7742;44.320;19.820;2023-08-08T08:31:06;19.05;;;18.05;;
15281;SDS011;7742;44.320;19.820;2023-08-08T08:33:35;17.50;;;16.50;;
15281;SDS011;7742;44.320;19.820;2023-08-08T08:36:02;16.25;;;15.25;;
15281;SDS011;7742;44.320;19.820;2023-08-08T08:38:29;15.60;;;14.80;;
15281;SDS011;7742;44.320;19.820;2023-08-08T08:40:56;16.35;;;15.55;;
15281;SDS011;7742;44.320;19.820;2023-08-08T08:43:23;16.60;;;15.75;;
15281;SDS011;7742;44.320;19.820;2023-08-08T08:45:51;16.60;;;15.80;;
15281;SDS011;7742;44.320;19.820;2023-08-08T08:48:18;15.32;;;14.52;;
15281;SDS011;7742;44.320;19.820;2023-08-08T08:50:47;16.50;;;15.45;;
15281;SDS011;7742;44.320;19.820;2023-08-08T08:53:14;16.30;;;15.30;;
15281;SDS011;7742;44.320;19.820;2023-08-08T08:55:43;16.65;;;15.95;;
15281;SDS011;7742;44.320;19.820;2023-08-08T08:58:10;16.42;;;15.63;;
15281;SDS011;7742;44.320;19.820;2023-08-08T09:00:37;16.00;;;15.20;;
15281;SDS011;7742;44.320;19.820;2023-08-08T09:03:05;16.17;;;15.48;;
15281;SDS011;7742;44.320;19.820;2023-08-08T09:05:32;13.25;;;12.73;;
15281;SDS011;7742;44.320;19.820;2023-08-08T09:08:02;13.80;;;13.20;;
15281;SDS011;7742;44.320;19.820;2023-08-08T09:10:29;14.37;;;13.77;;
15281;SDS011;7742;44.320;19.820;2023-08-08T09:12:57;16.00;;;15.30;;
15281;SDS011;7742;44.320;19.820;2023-08-08T09:15:24;16.02;;;15.23;;
15281;SDS011;7742;44.320;19.820;2023-08-08T09:17:51;16.08;;;15.30;;
15281;SDS011;7742;44.320;19.820;2023-08-08T09:20:18;16.10;;;15.30;;
15281;SDS011;7742;44.320;19.820;2023-08-08T09:22:45;16.13;;;15.33;;
15281;SDS011;7742;44.320;19.820;2023-08-08T09:25:14;16.80;;;15.93;;
15281;SDS011;7742;44.320;19.820;2023-08-08T09:27:41;16.50;;;15.70;;
15281;SDS011;7742;44.320;19.820;2023-08-08T09:30:09;16.10;;;15.40;;
15281;SDS011;7742;44.320;19.820;2023-08-08T09:32:37;16.50;;;15.70;;
15281;SDS011;7742;44.320;19.820;2023-08-08T09:35:04;16.20;;;15.30;;
15281;SDS011;7742;44.320;19.820;2023-08-08T09:37:34;15.70;;;15.00;;
15281;SDS011;7742;44.320;19.820;2023-08-08T09:40:02;16.92;;;16.13;;
15281;SDS011;7742;44.320;19.820;2023-08-08T09:42:32;16.83;;;16.02;;
15281;SDS011;7742;44.320;19.820;2023-08-08T09:44:59;16.55;;;15.75;;
15281;SDS011;7742;44.320;19.820;2023-08-08T09:47:26;17.35;;;16.55;;
15281;SDS011;7742;44.320;19.820;2023-08-08T09:49:56;18.35;;;17.45;;
15281;SDS011;7742;44.320;19.820;2023-08-08T09:52:23;18.85;;;17.95;;
15281;SDS011;7742;44.320;19.820;2023-08-08T09:54:52;18.67;;;17.77;;
15281;SDS011;7742;44.320;19.820;2023-08-08T09:57:19;17.35;;;16.35;;
15281;SDS011;7742;44.320;19.820;2023-08-08T09:59:48;22.58;;;21.48;;
15281;SDS011;7742;44.320;19.820;2023-08-08T10:02:16;15.88;;;15.10;;
15281;SDS011;7742;44.320;19.820;2023-08-08T10:04:43;16.17;;;15.37;;
15281;SDS011;7742;44.320;19.820;2023-08-08T10:07:10;17.25;;;16.45;;
15281;SDS011;7742;44.320;19.820;2023-08-08T10:09:37;17.25;;;16.50;;
15281;SDS011;7742;44.320;19.820;2023-08-08T10:12:05;16.42;;;15.63;;
15281;SDS011;7742;44.320;19.820;2023-08-08T10:14:34;19.10;;;18.10;;
15281;SDS011;7742;44.320;19.820;2023-08-08T10:17:03;16.08;;;15.25;;
15281;SDS011;7742;44.320;19.820;2023-08-08T10:19:30;21.55;;;20.35;;
15281;SDS011;7742;44.320;19.820;2023-08-08T10:21:58;24.48;;;23.27;;
15281;SDS011;7742;44.320;19.820;2023-08-08T10:24:25;17.87;;;16.87;;
15281;SDS011;7742;44.320;19.820;2023-08-08T10:26:52;14.80;;;14.00;;
15281;SDS011;7742;44.320;19.820;2023-08-08T10:29:20;16.63;;;15.82;;
15281;SDS011;7742;44.320;19.820;2023-08-08T10:31:53;17.70;;;16.80;;
15281;SDS011;7742;44.320;19.820;2023-08-08T10:34:24;17.50;;;16.50;;
15281;SDS011;7742;44.320;19.820;2023-08-08T10:36:53;18.15;;;17.25;;
15281;SDS011;7742;44.320;19.820;2023-08-08T10:39:20;20.42;;;19.42;;
15281;SDS011;7742;44.320;19.820;2023-08-08T10:41:48;20.95;;;19.85;;
15281;SDS011;7742;44.320;19.820;2023-08-08T10:44:21;18.17;;;17.15;;
15281;SDS011;7742;44.320;19.820;2023-08-08T10:46:50;18.40;;;17.30;;
15281;SDS011;7742;44.320;19.820;2023-08-08T10:49:17;18.77;;;17.67;;
15281;SDS011;7742;44.320;19.820;2023-08-08T10:51:46;18.80;;;17.80;;
15281;SDS011;7742;44.320;19.820;2023-08-08T10:54:14;19.20;;;18.20;;
15281;SDS011;7742;44.320;19.820;2023-08-08T10:56:47;17.17;;;16.27;;
15281;SDS011;7742;44.320;19.820;2023-08-08T10:59:14;17.83;;;17.02;;
15281;SDS011;7742;44.320;19.820;2023-08-08T11:01:42;17.90;;;16.90;;
15281;SDS011;7742;44.320;19.820;2023-08-08T11:04:11;18.10;;;17.20;;
15281;SDS011;7742;44.320;19.820;2023-08-08T11:06:39;18.55;;;17.55;;
15281;SDS011;7742;44.320;19.820;2023-08-08T11:09:08;19.15;;;18.15;;
15281;SDS011;7742;44.320;19.820;2023-08-08T11:11:38;18.15;;;17.15;;
15281;SDS011;7742;44.320;19.820;2023-08-08T11:14:11;19.33;;;18.33;;
15281;SDS011;7742;44.320;19.820;2023-08-08T11:16:39;19.80;;;18.80;;
15281;SDS011;7742;44.320;19.820;2023-08-08T11:19:06;19.70;;;18.60;;
15281;SDS011;7742;44.320;19.820;2023-08-08T11:21:33;20.85;;;19.70;;
15281;SDS011;7742;44.320;19.820;2023-08-08T11:24:00;21.15;;;20.02;;
15281;SDS011;7742;44.320;19.820;2023-08-08T11:26:29;19.25;;;18.15;;
15281;SDS011;7742;44.320;19.820;2023-08-08T11:28:57;19.95;;;18.75;;
15281;SDS011;7742;44.320;19.820;2023-08-08T11:31:24;19.80;;;18.70;;
15281;SDS011;7742;44.320;19.820;2023-08-08T11:33:52;19.40;;;18.30;;
15281;SDS011;7742;44.320;19.820;2023-08-08T11:36:19;18.92;;;17.83;;
15281;SDS011;7742;44.320;19.820;2023-08-08T11:38:47;19.40;;;18.40;;
15281;SDS011;7742;44.320;19.820;2023-08-08T11:41:15;20.60;;;19.50;;
15281;SDS011;7742;44.320;19.820;2023-08-08T11:43:44;18.60;;;17.70;;
15281;SDS011;7742;44.320;19.820;2023-08-08T11:46:11;16.17;;;15.38;;
15281;SDS011;7742;44.320;19.820;2023-08-08T11:48:38;17.30;;;16.40;;
15281;SDS011;7742;44.320;19.820;2023-08-08T11:51:06;17.90;;;16.80;;
15281;SDS011;7742;44.320;19.820;2023-08-08T11:53:33;16.95;;;16.10;;
15281;SDS011;7742;44.320;19.820;2023-08-08T11:56:01;15.70;;;14.93;;
15281;SDS011;7742;44.320;19.820;2023-08-08T11:58:29;17.10;;;16.30;;
15281;SDS011;7742;44.320;19.820;2023-08-08T12:00:57;18.53;;;17.73;;
15281;SDS011;7742;44.320;19.820;2023-08-08T12:03:25;19.80;;;19.00;;
15281;SDS011;7742;44.320;19.820;2023-08-08T12:05:52;19.80;;;19.00;;
15281;SDS011;7742;44.320;19.820;2023-08-08T12:08:19;19.80;;;18.90;;
15281;SDS011;7742;44.320;19.820;2023-08-08T12:10:48;20.13;;;19.02;;
15281;SDS011;7742;44.320;19.820;2023-08-08T12:13:19;20.48;;;19.48;;
15281;SDS011;7742;44.320;19.820;2023-08-08T12:15:46;21.08;;;20.08;;
15281;SDS011;7742;44.320;19.820;2023-08-08T12:18:17;21.77;;;20.57;;
15281;SDS011;7742;44.320;19.820;2023-08-08T12:20:44;23.87;;;22.67;;
15281;SDS011;7742;44.320;19.820;2023-08-08T12:23:11;25.52;;;24.13;;
15281;SDS011;7742;44.320;19.820;2023-08-08T12:25:38;18.88;;;17.88;;
15281;SDS011;7742;44.320;19.820;2023-08-08T12:28:05;16.55;;;15.85;;
15281;SDS011;7742;44.320;19.820;2023-08-08T12:30:32;16.27;;;15.55;;
15281;SDS011;7742;44.320;19.820;2023-08-08T12:33:00;16.70;;;15.90;;
15281;SDS011;7742;44.320;19.820;2023-08-08T12:35:28;17.25;;;16.45;;
15281;SDS011;7742;44.320;19.820;2023-08-08T12:37:55;17.87;;;17.07;;
15281;SDS011;7742;44.320;19.820;2023-08-08T12:40:22;19.73;;;18.83;;
15281;SDS011;7742;44.320;19.820;2023-08-08T12:42:50;22.80;;;21.70;;
15281;SDS011;7742;44.320;19.820;2023-08-08T12:45:17;19.45;;;18.65;;
15281;SDS011;7742;44.320;19.820;2023-08-08T12:47:44;18.10;;;17.30;;
15281;SDS011;7742;44.320;19.820;2023-08-08T12:50:11;17.73;;;16.95;;
15281;SDS011;7742;44.320;19.820;2023-08-08T12:52:41;17.70;;;16.80;;
15281;SDS011;7742;44.320;19.820;2023-08-08T12:55:08;17.30;;;16.50;;
15281;SDS011;7742;44.320;19.820;2023-08-08T12:57:37;19.15;;;18.33;;
15281;SDS011;7742;44.320;19.820;2023-08-08T13:00:04;17.80;;;17.00;;
15281;SDS011;7742;44.320;19.820;2023-08-08T13:02:32;19.00;;;18.00;;
15281;SDS011;7742;44.320;19.820;2023-08-08T13:04:59;21.10;;;20.00;;
15281;SDS011;7742;44.320;19.820;2023-08-08T13:07:28;19.15;;;18.15;;
15281;SDS011;7742;44.320;19.820;2023-08-08T13:09:57;18.00;;;17.00;;
15281;SDS011;7742;44.320;19.820;2023-08-08T13:12:24;18.60;;;17.70;;
15281;SDS011;7742;44.320;19.820;2023-08-08T13:14:51;16.27;;;15.38;;
15281;SDS011;7742;44.320;19.820;2023-08-08T13:17:18;16.98;;;16.08;;
15281;SDS011;7742;44.320;19.820;2023-08-08T13:19:45;17.30;;;16.48;;
15281;SDS011;7742;44.320;19.820;2023-08-08T13:22:12;19.25;;;18.40;;
15281;SDS011;7742;44.320;19.820;2023-08-08T13:24:39;18.20;;;17.30;;
15281;SDS011;7742;44.320;19.820;2023-08-08T13:27:07;17.10;;;16.30;;
15281;SDS011;7742;44.320;19.820;2023-08-08T13:29:34;21.92;;;20.83;;
15281;SDS011;7742;44.320;19.820;2023-08-08T13:32:01;21.05;;;20.15;;
15281;SDS011;7742;44.320;19.820;2023-08-08T13:34:29;18.80;;;17.90;;
15281;SDS011;7742;44.320;19.820;2023-08-08T13:36:56;18.05;;;17.25;;
15281;SDS011;7742;44.320;19.820;2023-08-08T13:39:22;20.23;;;19.23;;
15281;SDS011;7742;44.320;19.820;2023-08-08T13:41:49;21.38;;;20.48;;
15281;SDS011;7742;44.320;19.820;2023-08-08T13:44:18;19.27;;;18.48;;
15281;SDS011;7742;44.320;19.820;2023-08-08T13:46:45;20.67;;;19.77;;
15281;SDS011;7742;44.320;19.820;2023-08-08T13:49:12;24.30;;;23.27;;
15281;SDS011;7742;44.320;19.820;2023-08-08T13:51:39;19.13;;;18.27;;
15281;SDS011;7742;44.320;19.820;2023-08-08T13:54:05;19.58;;;18.67;;
15281;SDS011;7742;44.320;19.820;2023-08-08T13:56:32;18.10;;;17.30;;
15281;SDS011;7742;44.320;19.820;2023-08-08T13:58:59;19.20;;;18.20;;
15281;SDS011;7742;44.320;19.820;2023-08-08T14:01:28;19.48;;;18.58;;
15281;SDS011;7742;44.320;19.820;2023-08-08T14:03:54;19.40;;;18.50;;
15281;SDS011;7742;44.320;19.820;2023-08-08T14:06:21;19.97;;;19.07;;
15281;SDS011;7742;44.320;19.820;2023-08-08T14:08:48;19.00;;;18.10;;
15281;SDS011;7742;44.320;19.820;2023-08-08T14:11:17;19.00;;;18.00;;
15281;SDS011;7742;44.320;19.820;2023-08-08T14:13:44;18.23;;;17.42;;
15281;SDS011;7742;44.320;19.820;2023-08-08T14:16:11;18.38;;;17.55;;
15281;SDS011;7742;44.320;19.820;2023-08-08T14:18:39;17.83;;;17.02;;
15281;SDS011;7742;44.320;19.820;2023-08-08T14:21:06;18.23;;;17.33;;
15281;SDS011;7742;44.320;19.820;2023-08-08T14:23:33;18.83;;;17.83;;
15281;SDS011;7742;44.320;19.820;2023-08-08T14:26:00;17.58;;;16.77;;